sensor_id;sensor_type;location;lat;lon;timestamp;P1;durP1;ratioP1;P2;durP2;ratioP2
53151;SDS011;39234;53.158;6.322;2023-01-29T00:02:22;13.70;;;8.88;;
53151;SDS011;39234;53.158;6.322;2023-01-29T00:04:48;13.98;;;8.60;;
53151;SDS011;39234;53.158;6.322;2023-01-29T00:07:14;13.48;;;8.73;;
53151;SDS011;39234;53.158;6.322;2023-01-29T00:09:40;16.15;;;9.23;;
53151;SDS011;39234;53.158;6.322;2023-01-29T00:12:06;14.93;;;9.20;;
53151;SDS011;39234;53.158;6.322;2023-01-29T00:14:35;14.38;;;9.48;;
53151;SDS011;39234;53.158;6.322;2023-01-29T00:17:01;13.93;;;8.35;;
53151;SDS011;39234;53.158;6.322;2023-01-29T00:19:27;15.75;;;9.13;;
53151;SDS011;39234;53.158;6.322;2023-01-29T00:21:53;19.48;;;10.02;;
53151;SDS011;39234;53.158;6.322;2023-01-29T00:24:20;18.42;;;8.95;;
53151;SDS011;39234;53.158;6.322;2023-01-29T00:26:46;18.10;;;9.57;;
53151;SDS011;39234;53.158;6.322;2023-01-29T00:29:14;19.88;;;9.40;;
53151;SDS011;39234;53.158;6.322;2023-01-29T00:31:42;14.93;;;8.73;;
53151;SDS011;39234;53.158;6.322;2023-01-29T00:34:09;16.48;;;9.27;;
53151;SDS011;39234;53.158;6.322;2023-01-29T00:36:35;15.77;;;9.52;;
53151;SDS011;39234;53.158;6.322;2023-01-29T00:39:02;15.20;;;8.82;;
53151;SDS011;39234;53.158;6.322;2023-01-29T00:41:34;17.13;;;10.05;;
53151;SDS011;39234;53.158;6.322;2023-01-29T00:44:19;14.63;;;9.57;;
53151;SDS011;39234;53.158;6.322;2023-01-29T00:47:04;16.40;;;10.00;;
53151;SDS011;39234;53.158;6.322;2023-01-29T00:49:54;15.82;;;10.52;;
53151;SDS011;39234;53.158;6.322;2023-01-29T00:52:20;19.10;;;10.75;;
53151;SDS011;39234;53.158;6.322;2023-01-29T00:54:49;16.52;;;10.98;;
53151;SDS011;39234;53.158;6.322;2023-01-29T00:57:15;21.42;;;11.48;;
53151;SDS011;39234;53.158;6.322;2023-01-29T00:59:42;15.95;;;11.25;;
53151;SDS011;39234;53.158;6.322;2023-01-29T01:02:08;14.40;;;10.95;;
53151;SDS011;39234;53.158;6.322;2023-01-29T01:04:52;17.50;;;10.25;;
53151;SDS011;39234;53.158;6.322;2023-01-29T01:07:19;18.92;;;13.07;;
53151;SDS011;39234;53.158;6.322;2023-01-29T01:09:45;16.52;;;11.82;;
53151;SDS011;39234;53.158;6.322;2023-01-29T01:12:30;17.00;;;9.98;;
53151;SDS011;39234;53.158;6.322;2023-01-29T01:14:56;20.33;;;12.05;;
53151;SDS011;39234;53.158;6.322;2023-01-29T01:17:22;17.10;;;12.80;;
53151;SDS011;39234;53.158;6.322;2023-01-29T01:19:48;20.90;;;11.75;;
53151;SDS011;39234;53.158;6.322;2023-01-29T01:22:15;15.57;;;11.65;;
53151;SDS011;39234;53.158;6.322;2023-01-29T01:24:41;15.10;;;11.55;;
53151;SDS011;39234;53.158;6.322;2023-01-29T01:27:07;19.20;;;11.68;;
53151;SDS011;39234;53.158;6.322;2023-01-29T01:29:33;16.45;;;11.55;;
53151;SDS011;39234;53.158;6.322;2023-01-29T01:31:59;28.88;;;12.32;;
53151;SDS011;39234;53.158;6.322;2023-01-29T01:34:25;15.13;;;10.38;;
53151;SDS011;39234;53.158;6.322;2023-01-29T01:36:52;18.40;;;11.20;;
53151;SDS011;39234;53.158;6.322;2023-01-29T01:39:20;18.50;;;11.40;;
53151;SDS011;39234;53.158;6.322;2023-01-29T01:41:46;15.95;;;11.40;;
53151;SDS011;39234;53.158;6.322;2023-01-29T01:47:16;18.27;;;11.23;;
53151;SDS011;39234;53.158;6.322;2023-01-29T01:49:44;15.82;;;10.65;;
53151;SDS011;39234;53.158;6.322;2023-01-29T01:52:11;17.42;;;12.52;;
53151;SDS011;39234;53.158;6.322;2023-01-29T01:54:40;19.40;;;11.63;;
53151;SDS011;39234;53.158;6.322;2023-01-29T01:57:09;18.35;;;12.07;;
53151;SDS011;39234;53.158;6.322;2023-01-29T01:59:40;17.85;;;12.35;;
53151;SDS011;39234;53.158;6.322;2023-01-29T02:02:10;16.92;;;12.50;;
53151;SDS011;39234;53.158;6.322;2023-01-29T02:04:55;16.55;;;10.82;;
53151;SDS011;39234;53.158;6.322;2023-01-29T02:07:41;16.27;;;11.50;;
53151;SDS011;39234;53.158;6.322;2023-01-29T02:10:29;14.73;;;11.50;;
53151;SDS011;39234;53.158;6.322;2023-01-29T02:13:02;21.60;;;13.48;;
53151;SDS011;39234;53.158;6.322;2023-01-29T02:15:30;17.98;;;12.60;;
53151;SDS011;39234;53.158;6.322;2023-01-29T02:17:56;18.33;;;12.75;;
53151;SDS011;39234;53.158;6.322;2023-01-29T02:20:23;18.77;;;12.90;;
53151;SDS011;39234;53.158;6.322;2023-01-29T02:23:00;15.95;;;12.40;;
53151;SDS011;39234;53.158;6.322;2023-01-29T02:28:57;19.38;;;13.02;;
53151;SDS011;39234;53.158;6.322;2023-01-29T02:31:54;16.65;;;12.90;;
53151;SDS011;39234;53.158;6.322;2023-01-29T02:43:30;18.75;;;12.48;;
53151;SDS011;39234;53.158;6.322;2023-01-29T02:48:48;20.92;;;13.90;;
53151;SDS011;39234;53.158;6.322;2023-01-29T02:54:05;19.27;;;13.95;;
53151;SDS011;39234;53.158;6.322;2023-01-29T02:56:43;18.77;;;14.85;;
53151;SDS011;39234;53.158;6.322;2023-01-29T02:59:39;20.80;;;15.77;;
53151;SDS011;39234;53.158;6.322;2023-01-29T03:02:14;24.38;;;17.63;;
53151;SDS011;39234;53.158;6.322;2023-01-29T03:04:48;25.65;;;18.92;;
53151;SDS011;39234;53.158;6.322;2023-01-29T03:07:24;27.42;;;19.67;;
53151;SDS011;39234;53.158;6.322;2023-01-29T03:10:08;25.65;;;18.95;;
53151;SDS011;39234;53.158;6.322;2023-01-29T03:12:42;28.67;;;21.75;;
53151;SDS011;39234;53.158;6.322;2023-01-29T03:15:12;26.85;;;20.25;;
53151;SDS011;39234;53.158;6.322;2023-01-29T03:20:34;30.65;;;22.02;;
53151;SDS011;39234;53.158;6.322;2023-01-29T03:23:13;26.98;;;21.33;;
53151;SDS011;39234;53.158;6.322;2023-01-29T03:25:49;26.67;;;21.38;;
53151;SDS011;39234;53.158;6.322;2023-01-29T03:28:37;26.73;;;20.88;;
53151;SDS011;39234;53.158;6.322;2023-01-29T03:31:24;29.63;;;19.30;;
53151;SDS011;39234;53.158;6.322;2023-01-29T03:34:13;29.55;;;19.98;;
53151;SDS011;39234;53.158;6.322;2023-01-29T03:36:52;25.48;;;19.63;;
53151;SDS011;39234;53.158;6.322;2023-01-29T03:39:23;24.92;;;20.10;;
53151;SDS011;39234;53.158;6.322;2023-01-29T03:41:53;25.90;;;17.65;;
53151;SDS011;39234;53.158;6.322;2023-01-29T03:47:11;24.77;;;19.38;;
53151;SDS011;39234;53.158;6.322;2023-01-29T03:49:48;24.17;;;17.88;;
53151;SDS011;39234;53.158;6.322;2023-01-29T03:52:37;22.13;;;17.38;;
53151;SDS011;39234;53.158;6.322;2023-01-29T03:55:28;23.85;;;17.48;;
53151;SDS011;39234;53.158;6.322;2023-01-29T03:57:59;25.25;;;17.42;;
53151;SDS011;39234;53.158;6.322;2023-01-29T04:00:41;24.50;;;18.23;;
53151;SDS011;39234;53.158;6.322;2023-01-29T04:05:46;23.08;;;16.80;;
53151;SDS011;39234;53.158;6.322;2023-01-29T04:08:35;23.67;;;16.77;;
53151;SDS011;39234;53.158;6.322;2023-01-29T04:11:09;24.98;;;17.58;;
53151;SDS011;39234;53.158;6.322;2023-01-29T04:13:38;23.33;;;17.83;;
53151;SDS011;39234;53.158;6.322;2023-01-29T04:16:05;23.98;;;16.98;;
53151;SDS011;39234;53.158;6.322;2023-01-29T04:18:36;25.35;;;18.48;;
53151;SDS011;39234;53.158;6.322;2023-01-29T04:21:03;24.50;;;19.55;;
53151;SDS011;39234;53.158;6.322;2023-01-29T04:23:31;26.17;;;18.65;;
53151;SDS011;39234;53.158;6.322;2023-01-29T04:28:27;26.77;;;19.35;;
53151;SDS011;39234;53.158;6.322;2023-01-29T04:31:23;23.88;;;18.35;;
53151;SDS011;39234;53.158;6.322;2023-01-29T04:39:24;29.00;;;17.92;;
53151;SDS011;39234;53.158;6.322;2023-01-29T04:44:58;29.15;;;18.88;;
53151;SDS011;39234;53.158;6.322;2023-01-29T04:47:41;24.27;;;19.42;;
53151;SDS011;39234;53.158;6.322;2023-01-29T04:53:06;23.48;;;17.63;;
53151;SDS011;39234;53.158;6.322;2023-01-29T05:00:53;26.30;;;18.83;;
53151;SDS011;39234;53.158;6.322;2023-01-29T05:03:20;28.15;;;18.98;;
53151;SDS011;39234;53.158;6.322;2023-01-29T05:05:49;22.85;;;18.40;;
53151;SDS011;39234;53.158;6.322;2023-01-29T05:08:17;25.05;;;18.02;;
53151;SDS011;39234;53.158;6.322;2023-01-29T05:10:45;22.77;;;17.63;;
53151;SDS011;39234;53.158;6.322;2023-01-29T05:13:13;26.60;;;17.73;;
53151;SDS011;39234;53.158;6.322;2023-01-29T05:15:41;22.10;;;17.40;;
53151;SDS011;39234;53.158;6.322;2023-01-29T05:18:17;25.45;;;17.48;;
53151;SDS011;39234;53.158;6.322;2023-01-29T05:20:43;25.00;;;18.38;;
53151;SDS011;39234;53.158;6.322;2023-01-29T05:23:15;26.65;;;19.63;;
53151;SDS011;39234;53.158;6.322;2023-01-29T05:25:42;25.88;;;20.27;;
53151;SDS011;39234;53.158;6.322;2023-01-29T05:28:09;25.38;;;18.50;;
53151;SDS011;39234;53.158;6.322;2023-01-29T05:30:40;26.67;;;18.70;;
53151;SDS011;39234;53.158;6.322;2023-01-29T05:33:11;25.15;;;18.05;;
53151;SDS011;39234;53.158;6.322;2023-01-29T05:35:41;25.90;;;18.38;;
53151;SDS011;39234;53.158;6.322;2023-01-29T05:38:07;25.98;;;18.70;;
53151;SDS011;39234;53.158;6.322;2023-01-29T05:40:33;26.65;;;18.23;;
53151;SDS011;39234;53.158;6.322;2023-01-29T05:42:59;26.83;;;19.05;;
53151;SDS011;39234;53.158;6.322;2023-01-29T05:45:25;23.73;;;18.60;;
53151;SDS011;39234;53.158;6.322;2023-01-29T05:47:55;29.75;;;19.23;;
53151;SDS011;39234;53.158;6.322;2023-01-29T05:50:22;28.35;;;19.27;;
53151;SDS011;39234;53.158;6.322;2023-01-29T05:52:48;27.48;;;19.33;;
53151;SDS011;39234;53.158;6.322;2023-01-29T05:55:14;25.35;;;18.48;;
53151;SDS011;39234;53.158;6.322;2023-01-29T05:57:40;24.83;;;18.73;;
53151;SDS011;39234;53.158;6.322;2023-01-29T06:00:06;25.45;;;19.42;;
53151;SDS011;39234;53.158;6.322;2023-01-29T06:02:33;27.85;;;19.67;;
53151;SDS011;39234;53.158;6.322;2023-01-29T06:04:59;29.58;;;21.95;;
53151;SDS011;39234;53.158;6.322;2023-01-29T06:07:25;26.73;;;20.73;;
53151;SDS011;39234;53.158;6.322;2023-01-29T06:09:51;27.67;;;20.65;;
53151;SDS011;39234;53.158;6.322;2023-01-29T06:12:17;30.10;;;21.95;;
53151;SDS011;39234;53.158;6.322;2023-01-29T06:14:43;28.85;;;21.60;;
53151;SDS011;39234;53.158;6.322;2023-01-29T06:17:09;26.92;;;21.33;;
53151;SDS011;39234;53.158;6.322;2023-01-29T06:19:35;29.83;;;21.40;;
53151;SDS011;39234;53.158;6.322;2023-01-29T06:22:02;29.83;;;21.98;;
53151;SDS011;39234;53.158;6.322;2023-01-29T06:24:28;30.90;;;22.48;;
53151;SDS011;39234;53.158;6.322;2023-01-29T06:26:54;32.33;;;23.65;;
53151;SDS011;39234;53.158;6.322;2023-01-29T06:29:20;33.80;;;23.10;;
53151;SDS011;39234;53.158;6.322;2023-01-29T06:31:46;33.30;;;23.13;;
53151;SDS011;39234;53.158;6.322;2023-01-29T06:34:12;36.15;;;25.88;;
53151;SDS011;39234;53.158;6.322;2023-01-29T06:36:38;34.80;;;25.92;;
53151;SDS011;39234;53.158;6.322;2023-01-29T06:39:05;37.92;;;27.35;;
53151;SDS011;39234;53.158;6.322;2023-01-29T06:41:32;37.25;;;27.58;;
53151;SDS011;39234;53.158;6.322;2023-01-29T06:43:58;36.83;;;25.15;;
53151;SDS011;39234;53.158;6.322;2023-01-29T06:46:24;39.88;;;28.88;;
53151;SDS011;39234;53.158;6.322;2023-01-29T06:48:50;44.35;;;29.25;;
53151;SDS011;39234;53.158;6.322;2023-01-29T06:51:16;44.75;;;29.63;;
53151;SDS011;39234;53.158;6.322;2023-01-29T06:53:42;37.75;;;28.13;;
53151;SDS011;39234;53.158;6.322;2023-01-29T06:56:08;45.80;;;29.17;;
53151;SDS011;39234;53.158;6.322;2023-01-29T06:58:35;44.22;;;29.05;;
53151;SDS011;39234;53.158;6.322;2023-01-29T07:01:06;40.00;;;27.80;;
53151;SDS011;39234;53.158;6.322;2023-01-29T07:03:33;39.40;;;27.88;;
53151;SDS011;39234;53.158;6.322;2023-01-29T07:05:59;37.40;;;25.25;;
53151;SDS011;39234;53.158;6.322;2023-01-29T07:08:25;36.15;;;27.38;;
53151;SDS011;39234;53.158;6.322;2023-01-29T07:10:52;40.10;;;26.40;;
53151;SDS011;39234;53.158;6.322;2023-01-29T07:13:18;41.20;;;28.17;;
53151;SDS011;39234;53.158;6.322;2023-01-29T07:15:44;40.22;;;28.10;;
53151;SDS011;39234;53.158;6.322;2023-01-29T07:18:11;43.97;;;29.80;;
53151;SDS011;39234;53.158;6.322;2023-01-29T07:20:40;43.40;;;29.13;;
53151;SDS011;39234;53.158;6.322;2023-01-29T07:23:10;41.78;;;28.52;;
53151;SDS011;39234;53.158;6.322;2023-01-29T07:25:37;44.45;;;30.92;;
53151;SDS011;39234;53.158;6.322;2023-01-29T07:28:04;44.72;;;30.67;;
53151;SDS011;39234;53.158;6.322;2023-01-29T07:30:30;41.13;;;30.23;;
53151;SDS011;39234;53.158;6.322;2023-01-29T07:33:03;46.25;;;33.33;;
53151;SDS011;39234;53.158;6.322;2023-01-29T07:35:31;43.67;;;32.65;;
53151;SDS011;39234;53.158;6.322;2023-01-29T07:38:01;43.33;;;30.20;;
53151;SDS011;39234;53.158;6.322;2023-01-29T07:40:27;41.10;;;33.53;;
53151;SDS011;39234;53.158;6.322;2023-01-29T07:42:57;46.05;;;31.55;;
53151;SDS011;39234;53.158;6.322;2023-01-29T07:45:30;51.50;;;33.08;;
53151;SDS011;39234;53.158;6.322;2023-01-29T07:47:58;42.72;;;31.73;;
53151;SDS011;39234;53.158;6.322;2023-01-29T07:50:25;46.38;;;33.05;;
53151;SDS011;39234;53.158;6.322;2023-01-29T07:52:53;43.58;;;32.50;;
53151;SDS011;39234;53.158;6.322;2023-01-29T07:55:19;46.47;;;34.28;;
53151;SDS011;39234;53.158;6.322;2023-01-29T07:57:45;46.28;;;33.45;;
53151;SDS011;39234;53.158;6.322;2023-01-29T08:00:12;47.38;;;31.17;;
53151;SDS011;39234;53.158;6.322;2023-01-29T08:02:39;45.53;;;31.88;;
53151;SDS011;39234;53.158;6.322;2023-01-29T08:05:05;47.75;;;31.55;;
53151;SDS011;39234;53.158;6.322;2023-01-29T08:07:31;41.90;;;31.70;;
53151;SDS011;39234;53.158;6.322;2023-01-29T08:09:57;46.20;;;32.22;;
53151;SDS011;39234;53.158;6.322;2023-01-29T08:12:23;45.20;;;32.40;;
53151;SDS011;39234;53.158;6.322;2023-01-29T08:14:49;45.97;;;32.80;;
53151;SDS011;39234;53.158;6.322;2023-01-29T08:17:15;46.92;;;33.20;;
53151;SDS011;39234;53.158;6.322;2023-01-29T08:19:42;45.05;;;34.00;;
53151;SDS011;39234;53.158;6.322;2023-01-29T08:22:08;44.63;;;33.15;;
53151;SDS011;39234;53.158;6.322;2023-01-29T08:24:34;46.90;;;32.42;;
53151;SDS011;39234;53.158;6.322;2023-01-29T08:27:00;51.40;;;36.08;;
53151;SDS011;39234;53.158;6.322;2023-01-29T08:29:26;54.30;;;36.35;;
53151;SDS011;39234;53.158;6.322;2023-01-29T08:31:52;54.28;;;36.00;;
53151;SDS011;39234;53.158;6.322;2023-01-29T08:34:18;50.33;;;35.95;;
53151;SDS011;39234;53.158;6.322;2023-01-29T08:36:44;52.70;;;36.65;;
53151;SDS011;39234;53.158;6.322;2023-01-29T08:39:11;54.03;;;35.85;;
53151;SDS011;39234;53.158;6.322;2023-01-29T08:41:37;54.53;;;35.20;;
53151;SDS011;39234;53.158;6.322;2023-01-29T08:44:03;54.55;;;34.80;;
53151;SDS011;39234;53.158;6.322;2023-01-29T08:46:30;57.58;;;36.28;;
53151;SDS011;39234;53.158;6.322;2023-01-29T08:48:56;56.63;;;35.35;;
53151;SDS011;39234;53.158;6.322;2023-01-29T08:51:23;58.72;;;37.15;;
53151;SDS011;39234;53.158;6.322;2023-01-29T08:53:50;60.30;;;38.17;;
53151;SDS011;39234;53.158;6.322;2023-01-29T08:56:16;56.88;;;36.65;;
53151;SDS011;39234;53.158;6.322;2023-01-29T08:58:42;58.08;;;35.58;;
53151;SDS011;39234;53.158;6.322;2023-01-29T09:01:09;58.67;;;34.47;;
53151;SDS011;39234;53.158;6.322;2023-01-29T09:03:36;52.47;;;34.97;;
53151;SDS011;39234;53.158;6.322;2023-01-29T09:06:08;57.03;;;35.80;;
53151;SDS011;39234;53.158;6.322;2023-01-29T09:08:35;57.25;;;36.40;;
53151;SDS011;39234;53.158;6.322;2023-01-29T09:11:01;53.33;;;35.90;;
53151;SDS011;39234;53.158;6.322;2023-01-29T09:13:27;55.70;;;35.95;;
53151;SDS011;39234;53.158;6.322;2023-01-29T09:15:53;53.85;;;34.35;;
53151;SDS011;39234;53.158;6.322;2023-01-29T09:18:19;49.15;;;33.35;;
53151;SDS011;39234;53.158;6.322;2023-01-29T09:20:46;47.95;;;33.00;;
53151;SDS011;39234;53.158;6.322;2023-01-29T09:23:12;54.35;;;35.10;;
53151;SDS011;39234;53.158;6.322;2023-01-29T09:25:38;52.30;;;33.88;;
53151;SDS011;39234;53.158;6.322;2023-01-29T09:28:04;47.55;;;31.10;;
53151;SDS011;39234;53.158;6.322;2023-01-29T09:30:30;46.95;;;30.73;;
53151;SDS011;39234;53.158;6.322;2023-01-29T09:32:59;54.15;;;32.15;;
53151;SDS011;39234;53.158;6.322;2023-01-29T09:35:25;49.80;;;31.52;;
53151;SDS011;39234;53.158;6.322;2023-01-29T09:37:51;49.60;;;32.08;;
53151;SDS011;39234;53.158;6.322;2023-01-29T09:40:25;44.42;;;31.45;;
53151;SDS011;39234;53.158;6.322;2023-01-29T09:43:06;49.15;;;30.35;;
53151;SDS011;39234;53.158;6.322;2023-01-29T09:45:41;50.67;;;32.75;;
53151;SDS011;39234;53.158;6.322;2023-01-29T09:48:16;46.80;;;31.75;;
53151;SDS011;39234;53.158;6.322;2023-01-29T09:50:43;45.20;;;30.15;;
53151;SDS011;39234;53.158;6.322;2023-01-29T09:53:20;59.00;;;35.75;;
53151;SDS011;39234;53.158;6.322;2023-01-29T09:55:49;54.13;;;34.83;;
53151;SDS011;39234;53.158;6.322;2023-01-29T09:58:45;54.28;;;34.00;;
53151;SDS011;39234;53.158;6.322;2023-01-29T10:06:22;53.03;;;35.05;;
53151;SDS011;39234;53.158;6.322;2023-01-29T10:15:19;57.33;;;34.92;;
53151;SDS011;39234;53.158;6.322;2023-01-29T10:20:52;60.58;;;36.22;;
53151;SDS011;39234;53.158;6.322;2023-01-29T10:23:47;64.38;;;37.20;;
53151;SDS011;39234;53.158;6.322;2023-01-29T10:26:17;57.30;;;35.80;;
53151;SDS011;39234;53.158;6.322;2023-01-29T10:28:48;60.53;;;36.25;;
53151;SDS011;39234;53.158;6.322;2023-01-29T10:31:28;61.47;;;35.97;;
53151;SDS011;39234;53.158;6.322;2023-01-29T10:34:13;59.50;;;35.67;;
53151;SDS011;39234;53.158;6.322;2023-01-29T10:36:50;59.25;;;35.40;;
53151;SDS011;39234;53.158;6.322;2023-01-29T10:39:16;59.78;;;36.33;;
53151;SDS011;39234;53.158;6.322;2023-01-29T10:47:21;55.90;;;34.25;;
53151;SDS011;39234;53.158;6.322;2023-01-29T11:00:09;57.83;;;36.60;;
53151;SDS011;39234;53.158;6.322;2023-01-29T11:02:47;58.38;;;35.15;;
53151;SDS011;39234;53.158;6.322;2023-01-29T11:05:32;63.13;;;36.47;;
53151;SDS011;39234;53.158;6.322;2023-01-29T11:08:04;57.50;;;34.35;;
53151;SDS011;39234;53.158;6.322;2023-01-29T11:10:42;61.55;;;35.38;;
53151;SDS011;39234;53.158;6.322;2023-01-29T11:13:28;52.58;;;32.03;;
53151;SDS011;39234;53.158;6.322;2023-01-29T11:15:59;61.63;;;33.70;;
53151;SDS011;39234;53.158;6.322;2023-01-29T11:18:25;54.80;;;33.85;;
53151;SDS011;39234;53.158;6.322;2023-01-29T11:21:01;55.90;;;31.90;;
53151;SDS011;39234;53.158;6.322;2023-01-29T11:23:29;56.53;;;33.30;;
53151;SDS011;39234;53.158;6.322;2023-01-29T11:25:57;55.60;;;32.22;;
53151;SDS011;39234;53.158;6.322;2023-01-29T11:28:36;56.85;;;33.13;;
53151;SDS011;39234;53.158;6.322;2023-01-29T11:34:00;53.28;;;29.65;;
53151;SDS011;39234;53.158;6.322;2023-01-29T11:36:33;52.05;;;29.95;;
53151;SDS011;39234;53.158;6.322;2023-01-29T11:41:57;47.88;;;29.27;;
53151;SDS011;39234;53.158;6.322;2023-01-29T11:49:39;52.38;;;30.80;;
53151;SDS011;39234;53.158;6.322;2023-01-29T11:52:13;56.20;;;30.60;;
53151;SDS011;39234;53.158;6.322;2023-01-29T11:54:45;53.70;;;30.98;;
53151;SDS011;39234;53.158;6.322;2023-01-29T12:00:24;50.38;;;30.02;;
53151;SDS011;39234;53.158;6.322;2023-01-29T12:03:14;54.92;;;30.08;;
53151;SDS011;39234;53.158;6.322;2023-01-29T12:05:38;45.67;;;26.65;;
53151;SDS011;39234;53.158;6.322;2023-01-29T12:08:16;46.50;;;27.38;;
53151;SDS011;39234;53.158;6.322;2023-01-29T12:10:43;44.47;;;28.45;;
53151;SDS011;39234;53.158;6.322;2023-01-29T12:15:39;43.95;;;26.08;;
53151;SDS011;39234;53.158;6.322;2023-01-29T12:21:04;44.30;;;25.10;;
53151;SDS011;39234;53.158;6.322;2023-01-29T12:23:55;40.78;;;25.27;;
53151;SDS011;39234;53.158;6.322;2023-01-29T12:26:35;37.55;;;25.15;;
53151;SDS011;39234;53.158;6.322;2023-01-29T12:29:23;47.92;;;24.13;;
53151;SDS011;39234;53.158;6.322;2023-01-29T12:34:26;38.53;;;24.35;;
53151;SDS011;39234;53.158;6.322;2023-01-29T12:39:36;36.55;;;24.55;;
53151;SDS011;39234;53.158;6.322;2023-01-29T12:42:21;37.05;;;25.38;;
53151;SDS011;39234;53.158;6.322;2023-01-29T12:47:22;38.03;;;23.70;;
53151;SDS011;39234;53.158;6.322;2023-01-29T12:50:04;33.97;;;22.88;;
53151;SDS011;39234;53.158;6.322;2023-01-29T12:55:29;31.00;;;20.10;;
53151;SDS011;39234;53.158;6.322;2023-01-29T12:58:04;36.17;;;21.63;;
53151;SDS011;39234;53.158;6.322;2023-01-29T13:00:45;34.50;;;20.77;;
53151;SDS011;39234;53.158;6.322;2023-01-29T13:03:26;33.08;;;22.50;;
53151;SDS011;39234;53.158;6.322;2023-01-29T13:05:59;33.60;;;21.65;;
53151;SDS011;39234;53.158;6.322;2023-01-29T13:08:51;32.55;;;21.92;;
53151;SDS011;39234;53.158;6.322;2023-01-29T13:11:22;37.42;;;23.42;;
53151;SDS011;39234;53.158;6.322;2023-01-29T13:13:55;37.20;;;23.20;;
53151;SDS011;39234;53.158;6.322;2023-01-29T13:16:36;36.85;;;23.60;;
53151;SDS011;39234;53.158;6.322;2023-01-29T13:19:18;36.80;;;24.08;;
53151;SDS011;39234;53.158;6.322;2023-01-29T13:21:54;37.58;;;24.38;;
53151;SDS011;39234;53.158;6.322;2023-01-29T13:24:23;38.38;;;23.50;;
53151;SDS011;39234;53.158;6.322;2023-01-29T13:26:51;43.05;;;25.33;;
53151;SDS011;39234;53.158;6.322;2023-01-29T13:29:22;38.88;;;25.50;;
53151;SDS011;39234;53.158;6.322;2023-01-29T13:31:53;39.00;;;24.58;;
53151;SDS011;39234;53.158;6.322;2023-01-29T13:34:28;35.90;;;22.63;;
53151;SDS011;39234;53.158;6.322;2023-01-29T13:37:30;34.80;;;22.52;;
53151;SDS011;39234;53.158;6.322;2023-01-29T13:39:52;36.60;;;23.08;;
53151;SDS011;39234;53.158;6.322;2023-01-29T13:42:23;34.88;;;22.95;;
53151;SDS011;39234;53.158;6.322;2023-01-29T13:45:22;34.25;;;22.45;;
53151;SDS011;39234;53.158;6.322;2023-01-29T13:47:50;35.85;;;22.38;;
53151;SDS011;39234;53.158;6.322;2023-01-29T13:50:23;37.92;;;23.80;;
53151;SDS011;39234;53.158;6.322;2023-01-29T13:52:57;39.80;;;24.38;;
53151;SDS011;39234;53.158;6.322;2023-01-29T13:57:55;43.35;;;26.38;;
53151;SDS011;39234;53.158;6.322;2023-01-29T14:07:55;35.25;;;23.10;;
53151;SDS011;39234;53.158;6.322;2023-01-29T14:13:42;42.22;;;24.75;;
53151;SDS011;39234;53.158;6.322;2023-01-29T14:18:44;41.65;;;24.67;;
53151;SDS011;39234;53.158;6.322;2023-01-29T14:23:44;42.88;;;26.10;;
53151;SDS011;39234;53.158;6.322;2023-01-29T14:26:28;44.47;;;25.52;;
53151;SDS011;39234;53.158;6.322;2023-01-29T14:31:30;42.20;;;25.67;;
53151;SDS011;39234;53.158;6.322;2023-01-29T14:34:00;41.72;;;25.30;;
53151;SDS011;39234;53.158;6.322;2023-01-29T14:36:27;43.63;;;25.85;;
53151;SDS011;39234;53.158;6.322;2023-01-29T14:38:53;44.78;;;28.05;;
53151;SDS011;39234;53.158;6.322;2023-01-29T14:41:30;46.10;;;27.08;;
53151;SDS011;39234;53.158;6.322;2023-01-29T14:47:01;39.92;;;25.05;;
53151;SDS011;39234;53.158;6.322;2023-01-29T14:52:43;35.80;;;22.27;;
53151;SDS011;39234;53.158;6.322;2023-01-29T14:55:25;36.33;;;23.52;;
53151;SDS011;39234;53.158;6.322;2023-01-29T14:57:51;36.78;;;23.80;;
53151;SDS011;39234;53.158;6.322;2023-01-29T15:00:25;38.00;;;24.25;;
53151;SDS011;39234;53.158;6.322;2023-01-29T15:02:53;40.95;;;25.00;;
53151;SDS011;39234;53.158;6.322;2023-01-29T15:05:25;45.67;;;26.42;;
53151;SDS011;39234;53.158;6.322;2023-01-29T15:08:02;41.25;;;26.02;;
53151;SDS011;39234;53.158;6.322;2023-01-29T15:10:37;43.95;;;26.80;;
53151;SDS011;39234;53.158;6.322;2023-01-29T15:13:16;44.92;;;27.30;;
53151;SDS011;39234;53.158;6.322;2023-01-29T15:15:51;50.42;;;29.65;;
53151;SDS011;39234;53.158;6.322;2023-01-29T15:18:39;50.58;;;30.25;;
53151;SDS011;39234;53.158;6.322;2023-01-29T15:21:10;46.78;;;28.70;;
53151;SDS011;39234;53.158;6.322;2023-01-29T15:23:38;52.70;;;31.45;;
53151;SDS011;39234;53.158;6.322;2023-01-29T15:26:05;51.38;;;30.60;;
53151;SDS011;39234;53.158;6.322;2023-01-29T15:28:35;57.90;;;32.00;;
53151;SDS011;39234;53.158;6.322;2023-01-29T15:31:03;59.22;;;32.28;;
53151;SDS011;39234;53.158;6.322;2023-01-29T15:33:32;53.17;;;30.17;;
53151;SDS011;39234;53.158;6.322;2023-01-29T15:36:00;62.83;;;34.10;;
53151;SDS011;39234;53.158;6.322;2023-01-29T15:38:27;60.08;;;33.35;;
53151;SDS011;39234;53.158;6.322;2023-01-29T15:43:21;55.42;;;31.45;;
53151;SDS011;39234;53.158;6.322;2023-01-29T15:45:52;65.15;;;33.70;;
53151;SDS011;39234;53.158;6.322;2023-01-29T15:48:24;56.47;;;32.25;;
53151;SDS011;39234;53.158;6.322;2023-01-29T15:50:56;61.35;;;32.70;;
53151;SDS011;39234;53.158;6.322;2023-01-29T15:53:31;54.97;;;30.80;;
53151;SDS011;39234;53.158;6.322;2023-01-29T15:56:00;55.15;;;32.17;;
53151;SDS011;39234;53.158;6.322;2023-01-29T15:58:27;57.85;;;30.45;;
53151;SDS011;39234;53.158;6.322;2023-01-29T16:00:56;47.58;;;29.65;;
53151;SDS011;39234;53.158;6.322;2023-01-29T16:03:24;59.42;;;32.15;;
53151;SDS011;39234;53.158;6.322;2023-01-29T16:05:52;52.88;;;29.17;;
53151;SDS011;39234;53.158;6.322;2023-01-29T16:08:19;54.53;;;30.95;;
53151;SDS011;39234;53.158;6.322;2023-01-29T16:10:48;52.45;;;29.98;;
53151;SDS011;39234;53.158;6.322;2023-01-29T16:13:32;49.88;;;29.83;;
53151;SDS011;39234;53.158;6.322;2023-01-29T16:16:05;56.60;;;31.48;;
53151;SDS011;39234;53.158;6.322;2023-01-29T16:18:43;61.60;;;32.17;;
53151;SDS011;39234;53.158;6.322;2023-01-29T16:21:16;55.75;;;32.03;;
53151;SDS011;39234;53.158;6.322;2023-01-29T16:24:00;55.88;;;30.70;;
53151;SDS011;39234;53.158;6.322;2023-01-29T16:26:32;54.38;;;29.45;;
53151;SDS011;39234;53.158;6.322;2023-01-29T16:29:07;56.90;;;31.55;;
53151;SDS011;39234;53.158;6.322;2023-01-29T16:31:35;59.08;;;31.35;;
53151;SDS011;39234;53.158;6.322;2023-01-29T16:34:06;58.28;;;31.30;;
53151;SDS011;39234;53.158;6.322;2023-01-29T16:36:39;57.65;;;32.20;;
53151;SDS011;39234;53.158;6.322;2023-01-29T16:39:16;60.17;;;33.05;;
53151;SDS011;39234;53.158;6.322;2023-01-29T16:41:45;72.13;;;35.15;;
53151;SDS011;39234;53.158;6.322;2023-01-29T16:44:34;58.65;;;33.58;;
53151;SDS011;39234;53.158;6.322;2023-01-29T16:47:05;61.33;;;34.88;;
53151;SDS011;39234;53.158;6.322;2023-01-29T16:49:43;69.93;;;34.85;;
53151;SDS011;39234;53.158;6.322;2023-01-29T16:52:22;68.43;;;34.88;;
53151;SDS011;39234;53.158;6.322;2023-01-29T16:54:49;64.88;;;33.10;;
53151;SDS011;39234;53.158;6.322;2023-01-29T16:57:20;65.20;;;35.38;;
53151;SDS011;39234;53.158;6.322;2023-01-29T16:59:54;60.10;;;32.78;;
53151;SDS011;39234;53.158;6.322;2023-01-29T17:02:24;69.85;;;35.10;;
53151;SDS011;39234;53.158;6.322;2023-01-29T17:04:55;57.83;;;34.45;;